Alvin, Illinois
Current Conditions -  °F | °C
As of 4:35 AM on Friday 24 Oct 2014 (Local Time) from KDNV Reporting Station
Overcast Overcast  
Wind Chill: 47°   Ceiling: 2600
Heat Index: 47°   Visibility: 7mi
Dew Point: 46°   Wind: 3mph
Humidity: 95%   Direction: 170°S
Pressure: 30.06"   Gusts: NA
Location:  40.31°N, 87.61°W
Report Text: KDNV 240935Z AUTO 17003KT 7SM OVC026 09/08 A3006 RMK AO2 T00850077
Loading
Personal Weather Stations






























Interactive Weather Map
Tropical Storm Tracking
New forecast layout! Learn more

10-Day Weather Forecast

Advertisements
Track Severe Weather on mobile